createdAt,value
2022-10-01T00:02:25.491Z,14.20
2022-10-01T00:04:53.422Z,14.14
2022-10-01T00:07:21.368Z,14.14
2022-10-01T00:09:49.279Z,14.14
2022-10-01T00:12:17.204Z,14.12
2022-10-01T00:14:45.125Z,14.09
2022-10-01T00:17:13.005Z,14.04
2022-10-01T00:19:40.869Z,13.98
2022-10-01T00:22:08.774Z,13.96
2022-10-01T00:24:37.750Z,13.94
2022-10-01T00:27:05.669Z,13.88
2022-10-01T00:29:33.717Z,13.88
2022-10-01T00:32:02.147Z,13.84
2022-10-01T00:34:30.264Z,13.77
2022-10-01T00:36:58.181Z,13.71
2022-10-01T00:39:26.189Z,13.66
2022-10-01T00:41:54.699Z,13.62
2022-10-01T00:44:37.561Z,13.58
2022-10-01T00:47:21.476Z,13.49
2022-10-01T00:49:57.430Z,13.43
2022-10-01T00:52:32.396Z,13.39
2022-10-01T00:55:18.335Z,13.36
2022-10-01T00:57:46.980Z,13.30
2022-10-01T01:00:16.442Z,13.28
2022-10-01T01:02:44.508Z,13.25
2022-10-01T01:05:13.545Z,13.21
2022-10-01T01:07:49.718Z,13.17
2022-10-01T01:10:35.171Z,13.15
2022-10-01T01:13:11.755Z,13.13
2022-10-01T01:16:03.712Z,13.11
2022-10-01T01:18:42.968Z,13.07
2022-10-01T01:21:24.779Z,13.04
2022-10-01T01:24:32.735Z,12.94
2022-10-01T01:27:16.491Z,12.87
2022-10-01T01:30:08.458Z,12.83
2022-10-01T01:32:42.869Z,12.80
2022-10-01T01:35:13.840Z,12.78
2022-10-01T01:37:51.844Z,12.77
2022-10-01T01:40:21.876Z,12.75
2022-10-01T01:42:54.121Z,12.71
2022-10-01T01:45:28.761Z,12.71
2022-10-01T01:48:02.239Z,12.67
2022-10-01T01:50:39.156Z,12.64
2022-10-01T01:53:07.052Z,12.63
2022-10-01T01:55:36.895Z,12.62
2022-10-01T01:58:05.001Z,12.63
2022-10-01T02:00:32.957Z,12.56
2022-10-01T02:03:00.991Z,12.51
2022-10-01T02:05:45.604Z,12.48
2022-10-01T02:08:47.507Z,12.41
2022-10-01T02:11:24.992Z,12.35
2022-10-01T02:14:49.118Z,12.32
2022-10-01T02:17:36.515Z,12.29
2022-10-01T02:20:15.625Z,12.30
2022-10-01T02:23:15.532Z,12.27
2022-10-01T02:25:50.026Z,12.25
2022-10-01T02:28:23.579Z,12.25
2022-10-01T02:30:57.737Z,12.23
2022-10-01T02:33:36.651Z,12.21
2022-10-01T02:36:08.163Z,12.19
2022-10-01T02:38:40.972Z,12.15
2022-10-01T02:41:15.165Z,12.14
2022-10-01T02:44:03.164Z,12.12
2022-10-01T02:46:40.760Z,12.10
2022-10-01T02:49:09.888Z,12.08
2022-10-01T02:52:01.700Z,12.09
2022-10-01T02:54:39.875Z,12.09
2022-10-01T02:57:26.360Z,12.08
2022-10-01T03:00:01.352Z,12.03
2022-10-01T03:02:31.784Z,12.01
2022-10-01T03:05:00.948Z,12.00
2022-10-01T03:07:32.015Z,12.08
2022-10-01T03:10:00.058Z,12.07
2022-10-01T03:12:28.032Z,12.02
2022-10-01T03:14:56.053Z,12.01
2022-10-01T03:17:24.048Z,12.01
2022-10-01T03:19:51.941Z,11.99
2022-10-01T03:22:24.671Z,11.97
2022-10-01T03:24:53.552Z,12.00
2022-10-01T03:27:22.366Z,12.00
2022-10-01T03:29:50.791Z,11.98
2022-10-01T03:32:20.416Z,12.00
2022-10-01T03:34:48.615Z,11.98
2022-10-01T03:37:16.643Z,11.98
2022-10-01T03:39:44.920Z,11.98
2022-10-01T03:42:12.839Z,11.98
2022-10-01T03:44:41.473Z,11.95
2022-10-01T03:47:10.850Z,11.94
2022-10-01T03:49:38.718Z,11.93
2022-10-01T03:52:06.793Z,11.93
2022-10-01T03:54:34.793Z,11.90
2022-10-01T03:57:02.730Z,11.87
2022-10-01T03:59:30.582Z,11.84
2022-10-01T04:01:58.520Z,11.84
2022-10-01T04:04:28.913Z,11.83
2022-10-01T04:06:56.884Z,11.80
2022-10-01T04:09:24.828Z,11.77
2022-10-01T04:11:52.941Z,11.76
2022-10-01T04:14:21.062Z,11.73
2022-10-01T04:16:52.512Z,11.72
2022-10-01T04:19:20.679Z,11.73
2022-10-01T04:21:48.931Z,11.69
2022-10-01T04:24:16.962Z,11.66
2022-10-01T04:26:44.877Z,11.66
2022-10-01T04:29:12.887Z,11.62
2022-10-01T04:31:40.838Z,11.61
2022-10-01T04:34:08.841Z,11.59
2022-10-01T04:36:36.739Z,11.56
2022-10-01T04:39:05.452Z,11.56
2022-10-01T04:41:33.782Z,11.54
2022-10-01T04:44:02.106Z,11.52
2022-10-01T04:46:30.498Z,11.47
2022-10-01T04:48:58.739Z,11.44
2022-10-01T04:51:26.630Z,11.41
2022-10-01T04:53:55.628Z,11.38
2022-10-01T04:56:23.640Z,11.35
2022-10-01T04:58:51.817Z,11.35
2022-10-01T05:01:19.759Z,11.32
2022-10-01T05:03:47.780Z,11.30
2022-10-01T05:06:15.664Z,11.29
2022-10-01T05:08:43.519Z,11.31
2022-10-01T05:11:11.402Z,11.32
2022-10-01T05:13:39.308Z,11.33
2022-10-01T05:16:07.900Z,11.34
2022-10-01T05:18:36.123Z,11.28
2022-10-01T05:21:08.299Z,11.23
2022-10-01T05:23:36.203Z,11.23
2022-10-01T05:26:05.775Z,11.20
2022-10-01T05:28:35.785Z,11.16
2022-10-01T05:31:04.252Z,11.14
2022-10-01T05:33:34.126Z,11.13
2022-10-01T05:36:05.144Z,11.10
2022-10-01T05:38:37.422Z,11.01
2022-10-01T05:41:06.000Z,10.95
2022-10-01T05:43:34.215Z,10.94
2022-10-01T05:46:05.534Z,10.91
2022-10-01T05:48:36.915Z,10.91
2022-10-01T05:51:07.985Z,10.90
2022-10-01T05:53:37.820Z,10.86
2022-10-01T05:56:07.309Z,10.83
2022-10-01T05:58:35.517Z,10.87
2022-10-01T06:01:04.990Z,10.88
2022-10-01T06:03:33.200Z,10.89
2022-10-01T06:06:01.070Z,10.87
2022-10-01T06:08:28.983Z,10.90
2022-10-01T06:11:02.105Z,10.91
2022-10-01T06:13:30.744Z,10.94
2022-10-01T06:15:58.667Z,10.96
2022-10-01T06:18:27.440Z,10.98
2022-10-01T06:20:57.787Z,11.01
2022-10-01T06:23:25.825Z,11.04
2022-10-01T06:25:54.385Z,11.05
2022-10-01T06:28:22.398Z,11.09
2022-10-01T06:30:50.390Z,11.09
2022-10-01T06:33:19.043Z,11.11
2022-10-01T06:35:50.720Z,11.14
2022-10-01T06:38:22.094Z,11.16
2022-10-01T06:41:00.667Z,11.20
2022-10-01T06:43:31.447Z,11.21
2022-10-01T06:46:05.151Z,11.22
2022-10-01T06:48:36.068Z,11.23
2022-10-01T06:51:04.553Z,11.27
2022-10-01T06:53:32.703Z,11.28
2022-10-01T06:56:08.045Z,11.30
2022-10-01T06:58:37.465Z,11.33
2022-10-01T07:01:05.406Z,11.41
2022-10-01T07:03:33.443Z,11.47
2022-10-01T07:06:04.759Z,11.52
2022-10-01T07:08:33.469Z,11.53
2022-10-01T07:11:05.062Z,11.55
2022-10-01T07:13:33.106Z,11.59
2022-10-01T07:16:05.732Z,11.64
2022-10-01T07:18:33.800Z,11.69
2022-10-01T07:21:01.875Z,11.72
2022-10-01T07:23:29.747Z,11.72
2022-10-01T07:25:57.749Z,11.72
2022-10-01T07:28:26.308Z,11.74
2022-10-01T07:31:07.212Z,11.80
2022-10-01T07:33:35.168Z,11.84
2022-10-01T07:36:07.566Z,11.88
2022-10-01T07:38:35.649Z,11.92
2022-10-01T07:41:04.601Z,11.98
2022-10-01T07:43:34.694Z,12.03
2022-10-01T07:46:03.552Z,12.03
2022-10-01T07:48:31.739Z,12.05
2022-10-01T07:50:59.592Z,12.11
2022-10-01T07:53:28.247Z,12.16
2022-10-01T07:55:56.897Z,12.22
2022-10-01T07:58:24.876Z,12.28
2022-10-01T08:00:58.267Z,12.30
2022-10-01T08:03:27.083Z,12.36
2022-10-01T08:05:55.193Z,12.41
2022-10-01T08:08:23.216Z,12.45
2022-10-01T08:10:51.325Z,12.49
2022-10-01T08:13:20.432Z,12.55
2022-10-01T08:15:53.677Z,12.60
2022-10-01T08:18:23.591Z,12.67
2022-10-01T08:20:52.008Z,12.74
2022-10-01T08:23:19.936Z,12.78
2022-10-01T08:25:48.139Z,12.81
2022-10-01T08:28:16.514Z,12.85
2022-10-01T08:30:44.737Z,12.87
2022-10-01T08:33:14.617Z,12.91
2022-10-01T08:35:43.856Z,12.96
2022-10-01T08:38:13.201Z,13.01
2022-10-01T08:40:51.906Z,13.06
2022-10-01T08:43:31.270Z,13.13
2022-10-01T08:46:10.982Z,13.19
2022-10-01T08:48:56.915Z,13.25
2022-10-01T08:51:38.644Z,13.31
2022-10-01T08:54:39.815Z,13.34
2022-10-01T08:57:17.603Z,13.38
2022-10-01T08:59:52.209Z,13.47
2022-10-01T09:02:27.550Z,13.53
2022-10-01T09:05:21.040Z,13.56
2022-10-01T09:08:20.525Z,13.60
2022-10-01T09:11:04.401Z,13.64
2022-10-01T09:13:59.799Z,13.68
2022-10-01T09:17:06.407Z,13.72
2022-10-01T09:19:55.020Z,13.75
2022-10-01T09:22:47.935Z,13.79
2022-10-01T09:25:26.236Z,13.82
2022-10-01T09:28:28.820Z,13.86
2022-10-01T09:31:14.036Z,13.95
2022-10-01T09:34:02.162Z,14.00
2022-10-01T09:36:44.051Z,14.06
2022-10-01T09:39:27.161Z,14.07
2022-10-01T09:41:55.448Z,14.08
2022-10-01T09:44:31.003Z,14.05
2022-10-01T09:46:59.666Z,14.01
2022-10-01T09:49:35.133Z,14.00
2022-10-01T09:52:28.890Z,14.01
2022-10-01T09:55:12.249Z,14.08
2022-10-01T09:57:59.792Z,14.12
2022-10-01T10:00:28.675Z,14.12
2022-10-01T10:02:56.894Z,14.17
2022-10-01T10:05:29.011Z,14.19
2022-10-01T10:08:11.655Z,14.25
2022-10-01T10:10:51.024Z,14.29
2022-10-01T10:13:32.176Z,14.36
2022-10-01T10:16:10.642Z,14.41
2022-10-01T10:18:40.884Z,14.47
2022-10-01T10:21:18.137Z,14.54
2022-10-01T10:23:56.251Z,14.60
2022-10-01T10:26:34.556Z,14.65
2022-10-01T10:29:04.432Z,14.75
2022-10-01T10:31:44.980Z,14.81
2022-10-01T10:34:13.612Z,14.86
2022-10-01T10:36:43.772Z,14.89
2022-10-01T10:39:36.872Z,14.95
2022-10-01T10:42:06.953Z,15.00
2022-10-01T10:44:41.950Z,15.05
2022-10-01T10:47:17.242Z,15.13
2022-10-01T10:50:00.270Z,15.18
2022-10-01T10:52:36.469Z,15.19
2022-10-01T10:55:27.048Z,15.22
2022-10-01T10:57:57.753Z,15.21
2022-10-01T11:00:26.606Z,15.19
2022-10-01T11:03:05.206Z,15.21
2022-10-01T11:05:42.287Z,15.27
2022-10-01T11:08:21.261Z,15.42
2022-10-01T11:10:59.354Z,15.62
2022-10-01T11:13:51.470Z,15.77
2022-10-01T11:16:35.071Z,15.90
2022-10-01T11:19:30.887Z,15.98
2022-10-01T11:22:11.866Z,16.07
2022-10-01T11:24:47.054Z,16.08
2022-10-01T11:27:36.449Z,16.15
2022-10-01T11:30:16.806Z,16.29
2022-10-01T11:32:54.448Z,16.48
2022-10-01T11:35:52.263Z,16.61
2022-10-01T11:38:27.440Z,16.62
2022-10-01T11:41:11.908Z,16.56
2022-10-01T11:43:45.755Z,16.50
2022-10-01T11:46:40.488Z,16.45
2022-10-01T11:49:32.790Z,16.39
2022-10-01T11:52:23.721Z,16.41
2022-10-01T11:55:28.463Z,16.55
2022-10-01T11:58:28.980Z,16.83
2022-10-01T12:01:42.666Z,17.04
2022-10-01T12:04:22.540Z,17.16
2022-10-01T12:07:04.768Z,17.14
2022-10-01T12:09:58.661Z,17.06
2022-10-01T12:13:19.296Z,16.97
2022-10-01T12:16:08.591Z,16.82
2022-10-01T12:18:45.472Z,16.73
2022-10-01T12:21:30.307Z,16.68
2022-10-01T12:24:20.566Z,16.63
2022-10-01T12:27:02.556Z,16.69
2022-10-01T12:30:01.589Z,16.83
2022-10-01T12:33:17.447Z,16.93
2022-10-01T12:36:10.107Z,17.02
2022-10-01T12:38:47.262Z,17.16
2022-10-01T12:42:13.333Z,17.29
2022-10-01T12:45:21.641Z,17.51
2022-10-01T12:48:27.948Z,17.72
2022-10-01T12:52:03.050Z,17.78
2022-10-01T12:55:11.605Z,17.81
2022-10-01T12:58:00.848Z,17.81
2022-10-01T13:00:41.082Z,17.78
2022-10-01T13:03:44.483Z,17.78
2022-10-01T13:06:42.806Z,17.82
2022-10-01T13:09:34.232Z,17.85
2022-10-01T13:12:52.047Z,17.89
2022-10-01T13:15:32.805Z,17.97
2022-10-01T13:18:06.343Z,18.03
2022-10-01T13:20:46.273Z,18.13
2022-10-01T13:23:31.474Z,18.16
2022-10-01T13:26:25.659Z,18.16
2022-10-01T13:29:27.488Z,18.10
2022-10-01T13:32:00.685Z,18.09
2022-10-01T13:34:45.309Z,18.03
2022-10-01T13:37:29.677Z,17.96
2022-10-01T13:39:59.891Z,17.94
2022-10-01T13:42:47.232Z,17.91
2022-10-01T13:45:30.908Z,17.89
2022-10-01T13:48:11.841Z,17.88
2022-10-01T13:50:53.984Z,17.86
2022-10-01T13:53:25.811Z,17.87
2022-10-01T13:55:54.907Z,17.93
2022-10-01T13:58:45.499Z,18.02
2022-10-01T14:01:19.953Z,18.16
2022-10-01T14:04:24.506Z,18.27
2022-10-01T14:07:11.640Z,18.35
2022-10-01T14:09:51.988Z,18.40
2022-10-01T14:12:52.125Z,18.43
2022-10-01T14:16:00.130Z,18.47
2022-10-01T14:18:39.320Z,18.38
2022-10-01T14:21:22.975Z,18.35
2022-10-01T14:24:13.241Z,18.31
2022-10-01T14:26:56.480Z,18.25
2022-10-01T14:30:01.507Z,18.37
2022-10-01T14:32:39.921Z,18.54
2022-10-01T14:35:33.291Z,18.67
2022-10-01T14:38:10.891Z,18.79
2022-10-01T14:40:46.849Z,18.86
2022-10-01T14:43:29.189Z,18.79
2022-10-01T14:46:02.812Z,18.57
2022-10-01T14:48:38.005Z,18.32
2022-10-01T14:51:22.207Z,18.06
2022-10-01T14:53:52.430Z,17.87
2022-10-01T14:56:22.995Z,17.76
2022-10-01T14:59:05.694Z,17.67
2022-10-01T15:01:33.555Z,17.63
2022-10-01T15:04:01.993Z,17.74
2022-10-01T15:06:32.563Z,17.81
2022-10-01T15:09:15.510Z,17.86
2022-10-01T15:11:46.758Z,17.93
2022-10-01T15:14:19.340Z,18.01
2022-10-01T15:16:48.548Z,18.05
2022-10-01T15:19:23.070Z,18.09
2022-10-01T15:21:57.806Z,18.12
2022-10-01T15:25:00.955Z,18.18
2022-10-01T15:27:29.117Z,18.19
2022-10-01T15:30:01.357Z,18.13
2022-10-01T15:32:29.633Z,18.08
2022-10-01T15:35:01.758Z,18.07
2022-10-01T15:37:37.958Z,18.05
2022-10-01T15:40:20.949Z,18.05
2022-10-01T15:43:27.644Z,18.06
2022-10-01T15:46:04.668Z,18.04
2022-10-01T15:48:33.917Z,18.08
2022-10-01T15:51:20.207Z,18.08
2022-10-01T15:53:48.776Z,18.06
2022-10-01T15:56:24.061Z,18.05
2022-10-01T15:59:02.993Z,17.94
2022-10-01T16:01:40.301Z,17.76
2022-10-01T16:04:12.151Z,17.67
2022-10-01T16:06:44.979Z,17.62
2022-10-01T16:09:23.758Z,17.60
2022-10-01T16:11:59.721Z,17.55
2022-10-01T16:14:40.987Z,17.55
2022-10-01T16:17:27.186Z,17.59
2022-10-01T16:20:16.462Z,17.59
2022-10-01T16:22:44.385Z,17.60
2022-10-01T16:25:19.753Z,17.57
2022-10-01T16:27:50.740Z,17.51
2022-10-01T16:30:28.398Z,17.44
2022-10-01T16:32:59.906Z,17.37
2022-10-01T16:35:33.144Z,17.29
2022-10-01T16:38:01.433Z,17.17
2022-10-01T16:40:39.210Z,17.08
2022-10-01T16:43:08.848Z,16.99
2022-10-01T16:45:39.166Z,16.89
2022-10-01T16:48:19.761Z,16.81
2022-10-01T16:50:48.423Z,16.73
2022-10-01T16:53:18.675Z,16.65
2022-10-01T16:55:47.424Z,16.61
2022-10-01T16:58:15.887Z,16.53
2022-10-01T17:00:44.136Z,16.48
2022-10-01T17:03:18.792Z,16.42
2022-10-01T17:05:47.291Z,16.38
2022-10-01T17:08:15.854Z,16.32
2022-10-01T17:10:48.137Z,16.24
2022-10-01T17:13:16.311Z,16.20
2022-10-01T17:15:44.482Z,16.14
2022-10-01T17:18:13.882Z,16.05
2022-10-01T17:20:42.095Z,15.98
2022-10-01T17:23:12.510Z,15.94
2022-10-01T17:25:42.107Z,15.87
2022-10-01T17:28:17.704Z,15.82
2022-10-01T17:30:48.844Z,15.73
2022-10-01T17:33:19.457Z,15.67
2022-10-01T17:35:52.194Z,15.60
2022-10-01T17:38:21.113Z,15.55
2022-10-01T17:40:54.211Z,15.49
2022-10-01T17:43:24.645Z,15.44
2022-10-01T17:45:58.551Z,15.41
2022-10-01T17:48:28.536Z,15.39
2022-10-01T17:51:06.518Z,15.38
2022-10-01T17:53:42.094Z,15.40
2022-10-01T17:56:19.203Z,15.41
2022-10-01T17:58:47.248Z,15.40
2022-10-01T18:01:20.442Z,15.36
2022-10-01T18:03:54.175Z,15.32
2022-10-01T18:06:24.704Z,15.31
2022-10-01T18:08:56.342Z,15.28
2022-10-01T18:11:28.411Z,15.21
2022-10-01T18:13:56.768Z,15.16
2022-10-01T18:16:25.963Z,15.12
2022-10-01T18:21:51.146Z,15.14
2022-10-01T18:24:19.494Z,15.15
2022-10-01T18:26:47.470Z,15.13
2022-10-01T18:29:23.967Z,15.14
2022-10-01T18:32:05.213Z,15.12
2022-10-01T18:34:45.786Z,15.11
2022-10-01T18:37:28.889Z,15.12
2022-10-01T18:40:27.329Z,15.10
2022-10-01T18:43:08.539Z,15.12
2022-10-01T18:45:57.662Z,15.14
2022-10-01T18:48:58.618Z,15.14
2022-10-01T18:52:04.329Z,15.15
2022-10-01T18:54:56.346Z,15.15
2022-10-01T18:58:05.718Z,15.07
2022-10-01T19:01:05.111Z,14.98
2022-10-01T19:04:29.099Z,14.93
2022-10-01T19:07:03.534Z,14.87
2022-10-01T19:10:00.472Z,14.83
2022-10-01T19:13:00.580Z,14.82
2022-10-01T19:15:39.934Z,14.81
2022-10-01T19:18:29.405Z,14.77
2022-10-01T19:21:39.643Z,14.78
2022-10-01T19:24:45.644Z,14.74
2022-10-01T19:27:49.943Z,14.70
2022-10-01T19:30:20.048Z,14.67
2022-10-01T19:32:57.567Z,14.64
2022-10-01T19:35:46.624Z,14.62
2022-10-01T19:38:35.278Z,14.59
2022-10-01T19:41:16.286Z,14.57
2022-10-01T19:44:02.671Z,14.54
2022-10-01T19:46:43.282Z,14.55
2022-10-01T19:49:33.975Z,14.55
2022-10-01T19:52:16.771Z,14.55
2022-10-01T19:54:54.539Z,14.56
2022-10-01T19:57:26.609Z,14.55
2022-10-01T19:59:58.574Z,14.53
2022-10-01T20:02:36.497Z,14.52
2022-10-01T20:05:07.948Z,14.49
2022-10-01T20:08:00.353Z,14.47
2022-10-01T20:11:03.268Z,14.47
2022-10-01T20:13:41.686Z,14.48
2022-10-01T20:16:28.318Z,14.48
2022-10-01T20:19:14.332Z,14.46
2022-10-01T20:21:58.636Z,14.44
2022-10-01T20:24:39.302Z,14.41
2022-10-01T20:27:55.543Z,14.43
2022-10-01T20:30:24.098Z,14.43
2022-10-01T20:33:20.130Z,14.43
2022-10-01T20:36:06.617Z,14.45
2022-10-01T20:38:55.175Z,14.43
2022-10-01T20:41:30.197Z,14.42
2022-10-01T20:44:05.957Z,14.46
2022-10-01T20:46:48.302Z,14.44
2022-10-01T20:49:40.172Z,14.41
2022-10-01T20:52:51.069Z,14.40
2022-10-01T20:55:29.348Z,14.39
2022-10-01T20:58:06.584Z,14.39
2022-10-01T21:00:39.096Z,14.42
2022-10-01T21:03:19.640Z,14.43
2022-10-01T21:05:58.341Z,14.41
2022-10-01T21:08:48.882Z,14.41
2022-10-01T21:11:37.036Z,14.42
2022-10-01T21:14:34.487Z,14.43
2022-10-01T21:17:23.376Z,14.42
2022-10-01T21:20:47.700Z,14.40
2022-10-01T21:24:01.146Z,14.39
2022-10-01T21:26:48.043Z,14.39
2022-10-01T21:29:50.221Z,14.37
2022-10-01T21:32:58.902Z,14.35
2022-10-01T21:35:56.504Z,14.37
2022-10-01T21:38:42.925Z,14.36
2022-10-01T21:42:11.904Z,14.36
2022-10-01T21:45:44.684Z,14.40
2022-10-01T21:48:27.620Z,14.40
2022-10-01T21:51:34.805Z,14.38
2022-10-01T21:54:49.270Z,14.39
2022-10-01T21:57:37.026Z,14.37
2022-10-01T22:00:21.486Z,14.36
2022-10-01T22:03:22.310Z,14.47
2022-10-01T22:05:56.176Z,14.44
2022-10-01T22:08:43.988Z,14.39
2022-10-01T22:11:21.057Z,14.35
2022-10-01T22:14:20.666Z,14.36
2022-10-01T22:17:04.831Z,14.40
2022-10-01T22:19:39.209Z,14.44
2022-10-01T22:22:34.014Z,14.46
2022-10-01T22:25:03.764Z,14.51
2022-10-01T22:27:46.300Z,14.51
2022-10-01T22:30:16.630Z,14.51
2022-10-01T22:33:08.120Z,14.51
2022-10-01T22:35:48.958Z,14.50
2022-10-01T22:38:46.288Z,14.50
2022-10-01T22:41:20.187Z,14.48
2022-10-01T22:43:48.130Z,14.48
2022-10-01T22:46:31.298Z,14.47
2022-10-01T22:49:32.720Z,14.47
2022-10-01T22:52:49.814Z,14.46
2022-10-01T22:55:29.781Z,14.47
2022-10-01T22:58:44.513Z,14.47
2022-10-01T23:01:40.482Z,14.46
2022-10-01T23:04:32.678Z,14.47
2022-10-01T23:07:45.426Z,14.46
2022-10-01T23:10:43.555Z,14.48
2022-10-01T23:13:26.664Z,14.49
2022-10-01T23:16:15.666Z,14.49
2022-10-01T23:19:09.756Z,14.49
2022-10-01T23:22:06.782Z,14.44
2022-10-01T23:24:49.792Z,14.41
2022-10-01T23:27:50.763Z,14.44
2022-10-01T23:30:20.597Z,14.46
2022-10-01T23:33:06.726Z,14.48
2022-10-01T23:35:56.549Z,14.52
2022-10-01T23:39:06.640Z,14.55
2022-10-01T23:41:43.700Z,14.54
2022-10-01T23:44:33.301Z,14.57
2022-10-01T23:47:10.264Z,14.62
2022-10-01T23:49:44.525Z,14.65
2022-10-01T23:52:29.588Z,14.70
2022-10-01T23:55:23.899Z,14.74
2022-10-01T23:58:02.293Z,14.72
